Tuesday, December 18, 2018, 4:59 PM EST
Back to Local

KRME, Griffiss Airfield

Location: Rome, NY, United States Lat: 43.233
Local Time: 4:59 PM EST (21:59 GMT) Lon: -75.4
Time Zone: US/Eastern Elev: 505 ft

Show me the last for .
Show Decoded

2018-12-18 16:35 METAR KRME 182135Z 28010KT 9SM OVC028 M06/M09 A3019 RMK AO2 SNB18E33 P0000
                 T10611094 =
2018-12-18 15:53 METAR KRME 182053Z 31012KT 10SM BKN032 M06/M11 A3018 RMK AO2 SLP227 T10611111
                 53015 =
2018-12-18 14:53 METAR KRME 181953Z 29014KT 10SM CLR M05/M11 A3016 RMK AO2 SLP218 T10501111 =
2018-12-18 13:53 METAR KRME 181853Z 28013KT 10SM FEW035 M05/M11 A3014 RMK AO2 SLP212 T10501111 =
2018-12-18 12:53 METAR KRME 181753Z 31013KT 10SM CLR M04/M11 A3014 RMK AO2 SLP211 60000 T10441106
                 11044 21072 58015 =
2018-12-18 11:53 METAR KRME 181653Z 30008KT 10SM CLR M06/M12 A3015 RMK AO2 SLP217 T10561117 =
2018-12-18 10:53 METAR KRME 181553Z 31008KT 10SM CLR M07/M12 A3017 RMK AO2 SLP223 T10671122 =
2018-12-18 09:53 METAR KRME 181453Z 31012KT 10SM CLR M07/M12 A3018 RMK AO2 SLP226 60000 T10671117
                 51025 =
2018-12-18 08:53 METAR KRME 181353Z 35008KT 10SM CLR M07/M13 A3017 RMK AO2 SLP221 T10721128 =
2018-12-18 07:53 METAR KRME 181253Z 34008KT 10SM FEW030 OVC038 M07/M12 A3014 RMK AO2 SNE36 SLP211
                 P0000 T10671117 =
2018-12-18 06:53 METAR KRME 181153Z 33012KT 8SM -SN SCT029 OVC035 M06/M10 A3011 RMK AO2
                 SNB1054E23B49 SLP200 P0000 60000 70009 T10611100 11056 21067 53029 =
2018-12-18 05:53 METAR KRME 181053Z AUTO 33020G29KT 10SM OVC036 M06/M11 A3007 RMK AO2 PK WND
                 32029/1047 SNB08E45 SLP186 P0000 T10611111 =
2018-12-18 05:24 METAR KRME 181024Z AUTO 32012KT 4SM -SN BR SCT027 OVC035 M07/M09 A3006 RMK AO2
                 SNB08 P0000 T10671089 =
2018-12-18 05:16 METAR KRME 181016Z AUTO 32012G19KT 4SM -SN BKN027 OVC035 M06/M09 A3006 RMK AO2
                 SNB08 P0000 T10611094 =
2018-12-18 04:53 METAR KRME 180953Z AUTO 32014G22KT 10SM OVC032 M06/M10 A3004 RMK AO2 SNB00E36
                 SLP178 P0000 T10611100 =
2018-12-18 03:53 METAR KRME 180853Z AUTO 32015KT 10SM OVC033 M06/M11 A3002 RMK AO2 SLP170 60000
                 T10611106 51021 =
2018-12-18 02:53 METAR KRME 180753Z AUTO 32016G22KT 10SM OVC034 M06/M11 A3000 RMK AO2 SNE16
                 SLP163 P0000 T10611111 =
2018-12-18 01:53 METAR KRME 180653Z AUTO 32016G21KT 9SM -SN OVC033 M06/M10 A2998 RMK AO2 PK WND
                 32026/0555 SNB48 SLP156 P0000 T10561100 =
2018-12-18 00:53 METAR KRME 180553Z AUTO 32017G27KT 10SM OVC033 M06/M10 A2996 RMK AO2 PK WND
                 32027/0550 SLP148 60000 T10561100 10011 21056 51031 =
2018-12-17 23:53 METAR KRME 180453Z AUTO 32013KT 10SM OVC034 M06/M10 A2994 RMK AO2 PK WND
                 32026/0431 SLP144 T10561100 400221056 =
2018-12-17 22:53 METAR KRME 180353Z AUTO 33018KT 10SM FEW090 M06/M10 A2991 RMK AO2 PK WND
                 32035/0254 SLP134 T10561100 =
2018-12-17 22:02 METAR KRME 180302Z AUTO 32021G35KT 10SM SCT025 BKN032 OVC041 M03/M07 A2987 RMK
                 AO2 PK WND 32035/0254 T10281072 =
2018-12-17 21:53 METAR KRME 180253Z AUTO 32026G34KT 9SM BKN026 OVC033 M02/M06 A2986 RMK AO2 PK
                 WND 32034/0253 SNE51 SLP116 P0000 60000 T10221056 51022 =
2018-12-17 21:50 METAR KRME 180250Z AUTO 32024G32KT 9SM -SN BKN026 OVC031 M02/M06 A2986 RMK AO2
                 PK WND 32032/0250 P0000 =
2018-12-17 21:00 METAR KRME 180200Z AUTO 31019G29KT 9SM -SN SCT028 OVC038 M01/M04 A2983 RMK AO2
                 PK WND 32029/0154 P0000 T10111044 =
2018-12-17 20:53 METAR KRME 180153Z 32021G27KT 7SM -SN BKN028 OVC038 M01/M04 A2982 RMK AO2 PK WND
                 33027/0152 SLP102 P0000 T10111039 =
2018-12-17 20:17 METAR KRME 180117Z 32013KT 3SM -SN BR BKN021 OVC034 M01/M02 A2981 RMK AO2 P0000
                 T10061022 =
2018-12-17 20:06 METAR KRME 180106Z 32017G24KT 1 3/4SM -SN BR OVC021 M01/M02 A2981 RMK AO2 P0000
                 T10061022 =
2018-12-17 19:53 METAR KRME 180053Z 33018G24KT 3SM -SN BR FEW009 FEW014 OVC023 M01/M02 A2980 RMK
                 AO2 PK WND 32027/0040 SLP093 P0000 T10061022 =
2018-12-17 19:46 METAR KRME 180046Z 33017G27KT 2SM -SN BR FEW007 OVC017 00/M02 A2979 RMK AO2 PK
                 WND 32027/0040 P0000 T00001017 =
2018-12-17 19:34 METAR KRME 180034Z 29013KT 1SM -SN BR FEW008 BKN013 OVC047 01/M01 A2979 RMK AO2
                 P0000 T00061006 RVRNO =
2018-12-17 19:28 METAR KRME 180028Z 28013KT 2 1/2SM -SN BR SCT015 BKN023 OVC049 01/M01 A2978 RMK
                 AO2 P0000 T00061006 =
2018-12-17 19:09 METAR KRME 180009Z 28015KT 4SM -SN BR SCT024 BKN036 OVC050 01/M01 A2978 RMK AO2
                 P0000 T00061006 =
2018-12-17 18:53 METAR KRME 172353Z 28012KT 9SM -SN BKN024 BKN029 OVC035 01/M01 A2978 RMK AO2
                 SLP086 P0001 60005 T00111006 10017 20006 52009 =
2018-12-17 17:53 METAR KRME 172253Z 28014KT 9SM -SN FEW010 BKN027 OVC035 01/00 A2976 RMK AO2
                 SLP082 P0002 T00110000 =
2018-12-17 17:49 METAR KRME 172249Z 28011KT 9SM -SN FEW010 BKN017 OVC035 01/00 A2976 RMK AO2
                 P0002 =
2018-12-17 17:37 METAR KRME 172237Z 28014KT 7SM -SN SCT007 BKN011 OVC033 01/01 A2976 RMK AO2
                 P0002 T00110006 =
2018-12-17 17:25 METAR KRME 172225Z 28010KT 3SM -SN BR BKN007 BKN013 OVC017 01/01 A2975 RMK AO2
                 P0001 T00060006 =
2018-12-17 17:16 METAR KRME 172216Z 28009KT 2SM -SN BR SCT005 BKN013 OVC017 01/01 A2975 RMK AO2
                 P0000 T00060006 =
2018-12-17 17:03 METAR KRME 172203Z 28008KT 1 3/4SM -SN BR FEW007 BKN013 OVC036 01/01 A2975 RMK
                 AO2 P0000 T00060006 =

Support USWX by starting your Amazon purchase here.